sensor_id;sensor_type;location;lat;lon;timestamp;pressure;altitude;pressure_sealevel;temperature;humidity
21111;BME280;10713;51.912;4.494;2023-05-08T00:01:45;102092.25;;;15.65;100.00
21111;BME280;10713;51.912;4.494;2023-05-08T00:04:10;102096.56;;;15.69;100.00
21111;BME280;10713;51.912;4.494;2023-05-08T00:06:35;102102.09;;;15.85;100.00
21111;BME280;10713;51.912;4.494;2023-05-08T00:09:01;102097.00;;;15.57;100.00
21111;BME280;10713;51.912;4.494;2023-05-08T00:11:26;102095.91;;;15.40;100.00
21111;BME280;10713;51.912;4.494;2023-05-08T00:13:52;102102.47;;;15.31;100.00
21111;BME280;10713;51.912;4.494;2023-05-08T00:16:17;102102.69;;;15.25;100.00
21111;BME280;10713;51.912;4.494;2023-05-08T00:18:42;102102.81;;;15.22;100.00
21111;BME280;10713;51.912;4.494;2023-05-08T00:21:08;102102.16;;;15.16;100.00
21111;BME280;10713;51.912;4.494;2023-05-08T00:23:33;102107.56;;;15.14;100.00
21111;BME280;10713;51.912;4.494;2023-05-08T00:25:59;102101.19;;;15.18;100.00
21111;BME280;10713;51.912;4.494;2023-05-08T00:28:24;102104.09;;;15.12;100.00
21111;BME280;10713;51.912;4.494;2023-05-08T00:30:49;102110.16;;;15.16;100.00
21111;BME280;10713;51.912;4.494;2023-05-08T00:33:15;102107.53;;;15.38;100.00
21111;BME280;10713;51.912;4.494;2023-05-08T00:35:41;102103.28;;;15.55;100.00
21111;BME280;10713;51.912;4.494;2023-05-08T00:38:07;102094.47;;;15.53;100.00
21111;BME280;10713;51.912;4.494;2023-05-08T00:40:33;102094.41;;;15.33;100.00
21111;BME280;10713;51.912;4.494;2023-05-08T00:42:58;102102.06;;;15.19;100.00
21111;BME280;10713;51.912;4.494;2023-05-08T00:45:24;102109.66;;;15.06;100.00
21111;BME280;10713;51.912;4.494;2023-05-08T00:47:51;102108.81;;;14.80;100.00
21111;BME280;10713;51.912;4.494;2023-05-08T00:50:17;102114.13;;;14.57;100.00
21111;BME280;10713;51.912;4.494;2023-05-08T00:52:43;102107.56;;;14.40;100.00
21111;BME280;10713;51.912;4.494;2023-05-08T00:55:08;102109.00;;;14.24;100.00
21111;BME280;10713;51.912;4.494;2023-05-08T00:57:34;102110.81;;;14.24;100.00
21111;BME280;10713;51.912;4.494;2023-05-08T01:00:00;102113.22;;;14.31;100.00
21111;BME280;10713;51.912;4.494;2023-05-08T01:02:28;102111.03;;;14.42;100.00
21111;BME280;10713;51.912;4.494;2023-05-08T01:04:55;102105.50;;;14.49;100.00
21111;BME280;10713;51.912;4.494;2023-05-08T01:07:20;102116.94;;;14.52;100.00
21111;BME280;10713;51.912;4.494;2023-05-08T01:09:46;102099.94;;;14.56;100.00
21111;BME280;10713;51.912;4.494;2023-05-08T01:15:02;102098.91;;;14.60;100.00
21111;BME280;10713;51.912;4.494;2023-05-08T01:17:40;102093.53;;;14.62;100.00
21111;BME280;10713;51.912;4.494;2023-05-08T01:20:52;102099.63;;;14.66;100.00
21111;BME280;10713;51.912;4.494;2023-05-08T01:23:42;102094.47;;;14.61;100.00
21111;BME280;10713;51.912;4.494;2023-05-08T01:26:30;102093.03;;;14.76;100.00
21111;BME280;10713;51.912;4.494;2023-05-08T01:34:30;102092.13;;;14.77;100.00
21111;BME280;10713;51.912;4.494;2023-05-08T01:39:43;102103.03;;;14.69;100.00
21111;BME280;10713;51.912;4.494;2023-05-08T01:42:25;102109.84;;;14.76;100.00
21111;BME280;10713;51.912;4.494;2023-05-08T01:45:02;102103.50;;;14.80;100.00
21111;BME280;10713;51.912;4.494;2023-05-08T01:47:32;102108.63;;;14.85;100.00
21111;BME280;10713;51.912;4.494;2023-05-08T01:50:05;102110.66;;;14.78;100.00
21111;BME280;10713;51.912;4.494;2023-05-08T01:52:42;102111.00;;;14.69;100.00
21111;BME280;10713;51.912;4.494;2023-05-08T01:55:12;102108.63;;;14.61;100.00
21111;BME280;10713;51.912;4.494;2023-05-08T01:57:46;102116.06;;;14.52;100.00
21111;BME280;10713;51.912;4.494;2023-05-08T02:00:16;102119.69;;;14.48;100.00
21111;BME280;10713;51.912;4.494;2023-05-08T02:02:43;102116.25;;;14.46;100.00
21111;BME280;10713;51.912;4.494;2023-05-08T02:05:10;102126.78;;;14.49;100.00
21111;BME280;10713;51.912;4.494;2023-05-08T02:07:37;102126.47;;;14.58;100.00
21111;BME280;10713;51.912;4.494;2023-05-08T02:10:05;102132.19;;;14.71;100.00
21111;BME280;10713;51.912;4.494;2023-05-08T02:12:33;102133.72;;;14.78;100.00
21111;BME280;10713;51.912;4.494;2023-05-08T02:15:00;102123.22;;;14.75;100.00
21111;BME280;10713;51.912;4.494;2023-05-08T02:17:27;102133.31;;;14.65;100.00
21111;BME280;10713;51.912;4.494;2023-05-08T02:19:53;102135.25;;;14.60;100.00
21111;BME280;10713;51.912;4.494;2023-05-08T02:22:21;102136.00;;;14.63;100.00
21111;BME280;10713;51.912;4.494;2023-05-08T02:24:49;102135.16;;;14.63;100.00
21111;BME280;10713;51.912;4.494;2023-05-08T02:27:18;102128.97;;;14.62;100.00
21111;BME280;10713;51.912;4.494;2023-05-08T02:29:45;102132.59;;;14.60;100.00
21111;BME280;10713;51.912;4.494;2023-05-08T02:32:11;102133.09;;;14.71;100.00
21111;BME280;10713;51.912;4.494;2023-05-08T02:34:38;102126.09;;;14.69;100.00
21111;BME280;10713;51.912;4.494;2023-05-08T02:37:04;102119.22;;;14.63;100.00
21111;BME280;10713;51.912;4.494;2023-05-08T02:39:32;102119.31;;;14.60;100.00
21111;BME280;10713;51.912;4.494;2023-05-08T02:41:59;102116.94;;;14.52;100.00
21111;BME280;10713;51.912;4.494;2023-05-08T02:44:25;102125.34;;;14.38;100.00
21111;BME280;10713;51.912;4.494;2023-05-08T02:47:14;102125.69;;;14.28;100.00
21111;BME280;10713;51.912;4.494;2023-05-08T02:49:51;102124.91;;;14.26;100.00
21111;BME280;10713;51.912;4.494;2023-05-08T02:52:28;102111.09;;;14.41;100.00
21111;BME280;10713;51.912;4.494;2023-05-08T02:55:02;102114.22;;;14.27;100.00
21111;BME280;10713;51.912;4.494;2023-05-08T02:57:52;102113.78;;;14.14;100.00
21111;BME280;10713;51.912;4.494;2023-05-08T03:00:27;102120.59;;;14.22;100.00
21111;BME280;10713;51.912;4.494;2023-05-08T03:03:10;102121.28;;;14.28;100.00
21111;BME280;10713;51.912;4.494;2023-05-08T03:05:38;102117.81;;;14.26;100.00
21111;BME280;10713;51.912;4.494;2023-05-08T03:08:14;102124.41;;;13.88;100.00
21111;BME280;10713;51.912;4.494;2023-05-08T03:10:42;102122.81;;;13.82;100.00
21111;BME280;10713;51.912;4.494;2023-05-08T03:13:09;102138.00;;;14.30;100.00
21111;BME280;10713;51.912;4.494;2023-05-08T03:15:45;102133.81;;;14.50;100.00
21111;BME280;10713;51.912;4.494;2023-05-08T03:18:14;102122.69;;;14.65;100.00
21111;BME280;10713;51.912;4.494;2023-05-08T03:20:43;102124.66;;;14.83;100.00
21111;BME280;10713;51.912;4.494;2023-05-08T03:23:12;102117.88;;;15.00;100.00
21111;BME280;10713;51.912;4.494;2023-05-08T03:25:41;102121.16;;;14.83;100.00
21111;BME280;10713;51.912;4.494;2023-05-08T03:28:08;102110.25;;;14.66;100.00
21111;BME280;10713;51.912;4.494;2023-05-08T03:30:35;102107.97;;;14.55;100.00
21111;BME280;10713;51.912;4.494;2023-05-08T03:33:02;102114.03;;;14.58;100.00
21111;BME280;10713;51.912;4.494;2023-05-08T03:35:29;102113.94;;;14.61;100.00
21111;BME280;10713;51.912;4.494;2023-05-08T03:37:55;102122.50;;;14.70;100.00
21111;BME280;10713;51.912;4.494;2023-05-08T03:40:21;102117.53;;;14.60;100.00
21111;BME280;10713;51.912;4.494;2023-05-08T03:42:47;102105.72;;;14.93;100.00
21111;BME280;10713;51.912;4.494;2023-05-08T03:45:15;102108.69;;;14.33;100.00
21111;BME280;10713;51.912;4.494;2023-05-08T03:47:42;102112.34;;;14.31;100.00
21111;BME280;10713;51.912;4.494;2023-05-08T03:50:08;102118.31;;;14.37;100.00
21111;BME280;10713;51.912;4.494;2023-05-08T03:52:33;102105.28;;;14.30;100.00
21111;BME280;10713;51.912;4.494;2023-05-08T03:54:58;102099.94;;;14.31;100.00
21111;BME280;10713;51.912;4.494;2023-05-08T03:57:31;102095.41;;;14.08;100.00
21111;BME280;10713;51.912;4.494;2023-05-08T04:00:15;102100.47;;;13.89;100.00
21111;BME280;10713;51.912;4.494;2023-05-08T04:02:52;102100.78;;;13.80;100.00
21111;BME280;10713;51.912;4.494;2023-05-08T04:08:04;102101.22;;;13.93;100.00
21111;BME280;10713;51.912;4.494;2023-05-08T04:10:36;102104.03;;;13.88;100.00
21111;BME280;10713;51.912;4.494;2023-05-08T04:13:09;102115.31;;;13.95;100.00
21111;BME280;10713;51.912;4.494;2023-05-08T04:15:55;102110.94;;;13.94;100.00
21111;BME280;10713;51.912;4.494;2023-05-08T04:18:27;102122.19;;;14.02;100.00
21111;BME280;10713;51.912;4.494;2023-05-08T04:20:55;102116.78;;;14.04;100.00
21111;BME280;10713;51.912;4.494;2023-05-08T04:23:22;102117.25;;;14.16;100.00
21111;BME280;10713;51.912;4.494;2023-05-08T04:25:50;102119.59;;;14.26;100.00
21111;BME280;10713;51.912;4.494;2023-05-08T04:28:19;102123.13;;;14.26;100.00
21111;BME280;10713;51.912;4.494;2023-05-08T04:30:45;102115.16;;;14.26;100.00
21111;BME280;10713;51.912;4.494;2023-05-08T04:33:11;102121.28;;;14.28;100.00
21111;BME280;10713;51.912;4.494;2023-05-08T04:35:38;102122.78;;;14.35;100.00
21111;BME280;10713;51.912;4.494;2023-05-08T04:38:03;102125.63;;;14.31;100.00
21111;BME280;10713;51.912;4.494;2023-05-08T04:40:29;102128.69;;;14.45;100.00
21111;BME280;10713;51.912;4.494;2023-05-08T04:42:54;102122.13;;;14.55;100.00
21111;BME280;10713;51.912;4.494;2023-05-08T04:45:20;102128.69;;;14.70;100.00
21111;BME280;10713;51.912;4.494;2023-05-08T04:47:45;102124.03;;;14.77;100.00
21111;BME280;10713;51.912;4.494;2023-05-08T04:50:10;102125.72;;;14.79;100.00
21111;BME280;10713;51.912;4.494;2023-05-08T04:52:36;102119.69;;;14.74;100.00
21111;BME280;10713;51.912;4.494;2023-05-08T04:55:01;102124.88;;;14.77;100.00
21111;BME280;10713;51.912;4.494;2023-05-08T04:57:27;102121.63;;;14.94;100.00
21111;BME280;10713;51.912;4.494;2023-05-08T04:59:52;102128.25;;;15.06;100.00
21111;BME280;10713;51.912;4.494;2023-05-08T05:02:17;102133.47;;;15.09;100.00
21111;BME280;10713;51.912;4.494;2023-05-08T05:04:43;102137.22;;;15.03;100.00
21111;BME280;10713;51.912;4.494;2023-05-08T05:07:08;102145.81;;;14.86;100.00
21111;BME280;10713;51.912;4.494;2023-05-08T05:09:33;102154.63;;;15.12;100.00
21111;BME280;10713;51.912;4.494;2023-05-08T05:12:02;102155.31;;;15.17;100.00
21111;BME280;10713;51.912;4.494;2023-05-08T05:14:28;102156.69;;;15.27;100.00
21111;BME280;10713;51.912;4.494;2023-05-08T05:16:53;102152.44;;;15.23;100.00
21111;BME280;10713;51.912;4.494;2023-05-08T05:19:18;102157.97;;;15.41;100.00
21111;BME280;10713;51.912;4.494;2023-05-08T05:21:44;102156.94;;;15.68;100.00
21111;BME280;10713;51.912;4.494;2023-05-08T05:24:09;102158.78;;;15.65;100.00
21111;BME280;10713;51.912;4.494;2023-05-08T05:26:35;102166.50;;;15.72;100.00
21111;BME280;10713;51.912;4.494;2023-05-08T05:29:00;102169.97;;;15.96;100.00
21111;BME280;10713;51.912;4.494;2023-05-08T05:31:27;102168.00;;;16.02;100.00
21111;BME280;10713;51.912;4.494;2023-05-08T05:33:53;102170.31;;;15.89;100.00
21111;BME280;10713;51.912;4.494;2023-05-08T05:36:18;102178.59;;;15.81;100.00
21111;BME280;10713;51.912;4.494;2023-05-08T05:38:43;102176.06;;;15.78;100.00
21111;BME280;10713;51.912;4.494;2023-05-08T05:41:09;102174.22;;;15.80;100.00
21111;BME280;10713;51.912;4.494;2023-05-08T05:43:34;102183.09;;;15.79;100.00
21111;BME280;10713;51.912;4.494;2023-05-08T05:46:06;102185.84;;;15.77;100.00
21111;BME280;10713;51.912;4.494;2023-05-08T05:48:32;102193.13;;;15.72;100.00
21111;BME280;10713;51.912;4.494;2023-05-08T05:50:58;102192.41;;;15.69;100.00
21111;BME280;10713;51.912;4.494;2023-05-08T05:53:23;102192.53;;;15.64;100.00
21111;BME280;10713;51.912;4.494;2023-05-08T05:55:48;102196.25;;;15.60;100.00
21111;BME280;10713;51.912;4.494;2023-05-08T05:58:14;102193.50;;;15.62;100.00
21111;BME280;10713;51.912;4.494;2023-05-08T06:00:41;102202.97;;;15.70;100.00
21111;BME280;10713;51.912;4.494;2023-05-08T06:03:06;102196.63;;;15.74;100.00
21111;BME280;10713;51.912;4.494;2023-05-08T06:05:31;102205.03;;;15.86;100.00
21111;BME280;10713;51.912;4.494;2023-05-08T06:07:57;102193.84;;;15.99;100.00
21111;BME280;10713;51.912;4.494;2023-05-08T06:10:23;102199.78;;;16.06;100.00
21111;BME280;10713;51.912;4.494;2023-05-08T06:12:48;102195.28;;;16.08;100.00
21111;BME280;10713;51.912;4.494;2023-05-08T06:15:14;102187.16;;;16.11;100.00
21111;BME280;10713;51.912;4.494;2023-05-08T06:17:40;102191.00;;;16.25;100.00
21111;BME280;10713;51.912;4.494;2023-05-08T06:20:06;102190.09;;;16.26;100.00
21111;BME280;10713;51.912;4.494;2023-05-08T06:22:32;102192.56;;;16.30;100.00
21111;BME280;10713;51.912;4.494;2023-05-08T06:24:58;102185.56;;;16.28;100.00
21111;BME280;10713;51.912;4.494;2023-05-08T06:27:23;102190.63;;;16.34;100.00
21111;BME280;10713;51.912;4.494;2023-05-08T06:29:49;102189.13;;;16.49;100.00
21111;BME280;10713;51.912;4.494;2023-05-08T06:32:17;102188.06;;;16.53;100.00
21111;BME280;10713;51.912;4.494;2023-05-08T06:34:43;102186.06;;;16.58;100.00
21111;BME280;10713;51.912;4.494;2023-05-08T06:37:08;102188.66;;;16.59;100.00
21111;BME280;10713;51.912;4.494;2023-05-08T06:39:33;102188.50;;;16.62;100.00
21111;BME280;10713;51.912;4.494;2023-05-08T06:41:59;102182.31;;;16.62;100.00
21111;BME280;10713;51.912;4.494;2023-05-08T06:44:24;102182.06;;;16.68;100.00
21111;BME280;10713;51.912;4.494;2023-05-08T06:46:49;102188.78;;;16.56;100.00
21111;BME280;10713;51.912;4.494;2023-05-08T06:49:15;102187.38;;;16.48;100.00
21111;BME280;10713;51.912;4.494;2023-05-08T06:51:40;102190.00;;;16.49;100.00
21111;BME280;10713;51.912;4.494;2023-05-08T06:54:05;102188.06;;;16.53;100.00
21111;BME280;10713;51.912;4.494;2023-05-08T06:56:33;102180.28;;;16.69;100.00
21111;BME280;10713;51.912;4.494;2023-05-08T06:58:58;102184.97;;;16.84;100.00
21111;BME280;10713;51.912;4.494;2023-05-08T07:01:24;102185.94;;;17.02;100.00
21111;BME280;10713;51.912;4.494;2023-05-08T07:03:49;102175.88;;;17.27;100.00
21111;BME280;10713;51.912;4.494;2023-05-08T07:06:15;102171.69;;;17.22;100.00
21111;BME280;10713;51.912;4.494;2023-05-08T07:08:40;102171.41;;;17.47;100.00
21111;BME280;10713;51.912;4.494;2023-05-08T07:11:05;102171.47;;;17.64;100.00
21111;BME280;10713;51.912;4.494;2023-05-08T07:13:32;102161.66;;;17.65;100.00
21111;BME280;10713;51.912;4.494;2023-05-08T07:15:58;102156.59;;;17.77;100.00
21111;BME280;10713;51.912;4.494;2023-05-08T07:18:23;102159.25;;;17.96;100.00
21111;BME280;10713;51.912;4.494;2023-05-08T07:20:49;102159.06;;;17.82;100.00
21111;BME280;10713;51.912;4.494;2023-05-08T07:23:14;102161.75;;;17.63;100.00
21111;BME280;10713;51.912;4.494;2023-05-08T07:25:40;102169.91;;;17.60;100.00
21111;BME280;10713;51.912;4.494;2023-05-08T07:28:06;102162.53;;;17.84;100.00
21111;BME280;10713;51.912;4.494;2023-05-08T07:30:32;102166.00;;;17.86;100.00
21111;BME280;10713;51.912;4.494;2023-05-08T07:32:57;102162.22;;;17.90;100.00
21111;BME280;10713;51.912;4.494;2023-05-08T07:35:23;102166.38;;;18.15;100.00
21111;BME280;10713;51.912;4.494;2023-05-08T07:37:48;102157.72;;;18.27;100.00
21111;BME280;10713;51.912;4.494;2023-05-08T07:40:14;102153.00;;;18.32;100.00
21111;BME280;10713;51.912;4.494;2023-05-08T07:42:46;102158.84;;;18.58;100.00
21111;BME280;10713;51.912;4.494;2023-05-08T07:45:12;102156.66;;;18.99;100.00
21111;BME280;10713;51.912;4.494;2023-05-08T07:47:56;102151.19;;;19.18;100.00
21111;BME280;10713;51.912;4.494;2023-05-08T07:50:23;102153.28;;;19.45;100.00
21111;BME280;10713;51.912;4.494;2023-05-08T07:52:48;102146.66;;;19.68;100.00
21111;BME280;10713;51.912;4.494;2023-05-08T07:55:14;102146.22;;;19.75;100.00
21111;BME280;10713;51.912;4.494;2023-05-08T07:57:40;102156.16;;;19.73;100.00
21111;BME280;10713;51.912;4.494;2023-05-08T08:00:09;102150.91;;;19.72;100.00
21111;BME280;10713;51.912;4.494;2023-05-08T08:02:35;102153.66;;;19.86;100.00
21111;BME280;10713;51.912;4.494;2023-05-08T08:05:01;102154.22;;;20.07;100.00
21111;BME280;10713;51.912;4.494;2023-05-08T08:07:26;102154.25;;;20.21;100.00
21111;BME280;10713;51.912;4.494;2023-05-08T08:09:51;102150.63;;;20.22;100.00
21111;BME280;10713;51.912;4.494;2023-05-08T08:12:17;102147.06;;;19.92;100.00
21111;BME280;10713;51.912;4.494;2023-05-08T08:14:42;102151.47;;;19.77;100.00
21111;BME280;10713;51.912;4.494;2023-05-08T08:17:08;102165.41;;;19.68;100.00
21111;BME280;10713;51.912;4.494;2023-05-08T08:19:33;102149.94;;;19.73;100.00
21111;BME280;10713;51.912;4.494;2023-05-08T08:21:59;102156.69;;;20.10;100.00
21111;BME280;10713;51.912;4.494;2023-05-08T08:24:24;102152.81;;;20.46;100.00
21111;BME280;10713;51.912;4.494;2023-05-08T08:26:50;102148.00;;;20.96;100.00
21111;BME280;10713;51.912;4.494;2023-05-08T08:29:15;102137.41;;;21.50;100.00
21111;BME280;10713;51.912;4.494;2023-05-08T08:31:41;102131.94;;;22.45;100.00
21111;BME280;10713;51.912;4.494;2023-05-08T08:34:07;102129.47;;;23.43;100.00
21111;BME280;10713;51.912;4.494;2023-05-08T08:36:32;102118.31;;;24.09;100.00
21111;BME280;10713;51.912;4.494;2023-05-08T08:38:58;102119.59;;;24.62;100.00
21111;BME280;10713;51.912;4.494;2023-05-08T08:41:23;102109.31;;;25.01;100.00
21111;BME280;10713;51.912;4.494;2023-05-08T08:43:48;102103.78;;;25.14;100.00
21111;BME280;10713;51.912;4.494;2023-05-08T08:46:14;102106.31;;;25.38;100.00
21111;BME280;10713;51.912;4.494;2023-05-08T08:48:45;102097.22;;;25.50;100.00
21111;BME280;10713;51.912;4.494;2023-05-08T08:51:18;102099.09;;;25.05;100.00
21111;BME280;10713;51.912;4.494;2023-05-08T08:53:48;102103.16;;;24.77;100.00
21111;BME280;10713;51.912;4.494;2023-05-08T08:56:20;102090.41;;;24.32;100.00
21111;BME280;10713;51.912;4.494;2023-05-08T08:58:53;102099.59;;;23.46;100.00
21111;BME280;10713;51.912;4.494;2023-05-08T09:01:20;102102.22;;;23.11;100.00
21111;BME280;10713;51.912;4.494;2023-05-08T09:03:48;102098.66;;;23.10;100.00
21111;BME280;10713;51.912;4.494;2023-05-08T09:06:13;102103.91;;;23.12;100.00
21111;BME280;10713;51.912;4.494;2023-05-08T09:08:39;102107.06;;;22.80;100.00
21111;BME280;10713;51.912;4.494;2023-05-08T09:11:05;102116.06;;;23.54;100.00
21111;BME280;10713;51.912;4.494;2023-05-08T09:13:30;102115.72;;;23.96;100.00
21111;BME280;10713;51.912;4.494;2023-05-08T09:15:57;102106.81;;;23.82;100.00
21111;BME280;10713;51.912;4.494;2023-05-08T09:18:23;102115.06;;;23.44;100.00
21111;BME280;10713;51.912;4.494;2023-05-08T09:20:49;102109.75;;;23.06;100.00
21111;BME280;10713;51.912;4.494;2023-05-08T09:23:16;102117.59;;;22.83;100.00
21111;BME280;10713;51.912;4.494;2023-05-08T09:25:48;102122.03;;;22.59;100.00
21111;BME280;10713;51.912;4.494;2023-05-08T09:28:20;102115.13;;;22.55;100.00
21111;BME280;10713;51.912;4.494;2023-05-08T09:30:56;102116.66;;;22.33;100.00
21111;BME280;10713;51.912;4.494;2023-05-08T09:33:27;102114.84;;;22.07;100.00
21111;BME280;10713;51.912;4.494;2023-05-08T09:35:55;102116.47;;;21.82;100.00
21111;BME280;10713;51.912;4.494;2023-05-08T09:38:39;102126.78;;;21.75;100.00
21111;BME280;10713;51.912;4.494;2023-05-08T09:43:36;102128.88;;;21.97;100.00
21111;BME280;10713;51.912;4.494;2023-05-08T09:46:21;102117.19;;;22.11;100.00
21111;BME280;10713;51.912;4.494;2023-05-08T09:48:51;102118.34;;;22.21;100.00
21111;BME280;10713;51.912;4.494;2023-05-08T09:51:17;102119.03;;;22.11;100.00
21111;BME280;10713;51.912;4.494;2023-05-08T09:53:43;102117.28;;;21.97;100.00
21111;BME280;10713;51.912;4.494;2023-05-08T09:56:08;102128.56;;;21.89;100.00
21111;BME280;10713;51.912;4.494;2023-05-08T09:58:38;102121.78;;;21.84;100.00
21111;BME280;10713;51.912;4.494;2023-05-08T10:01:05;102125.31;;;21.84;100.00
21111;BME280;10713;51.912;4.494;2023-05-08T10:03:49;102114.91;;;21.92;100.00
21111;BME280;10713;51.912;4.494;2023-05-08T10:06:15;102127.22;;;21.82;100.00
21111;BME280;10713;51.912;4.494;2023-05-08T10:08:40;102128.47;;;21.64;100.00
21111;BME280;10713;51.912;4.494;2023-05-08T10:11:16;102125.97;;;21.61;100.00
21111;BME280;10713;51.912;4.494;2023-05-08T10:13:42;102132.94;;;21.63;100.00
21111;BME280;10713;51.912;4.494;2023-05-08T10:16:17;102139.56;;;21.99;100.00
21111;BME280;10713;51.912;4.494;2023-05-08T10:18:47;102134.06;;;22.40;100.00
21111;BME280;10713;51.912;4.494;2023-05-08T10:21:14;102129.16;;;22.47;100.00
21111;BME280;10713;51.912;4.494;2023-05-08T10:23:46;102129.34;;;22.57;100.00
21111;BME280;10713;51.912;4.494;2023-05-08T10:26:15;102125.28;;;22.64;100.00
21111;BME280;10713;51.912;4.494;2023-05-08T10:28:57;102123.78;;;22.73;100.00
21111;BME280;10713;51.912;4.494;2023-05-08T10:31:33;102116.22;;;22.78;100.00
21111;BME280;10713;51.912;4.494;2023-05-08T10:34:00;102122.91;;;22.59;100.00
21111;BME280;10713;51.912;4.494;2023-05-08T10:36:26;102117.31;;;22.49;100.00
21111;BME280;10713;51.912;4.494;2023-05-08T10:38:53;102115.06;;;22.43;100.00
21111;BME280;10713;51.912;4.494;2023-05-08T10:41:19;102125.13;;;22.27;100.00
21111;BME280;10713;51.912;4.494;2023-05-08T10:43:45;102115.88;;;22.18;100.00
21111;BME280;10713;51.912;4.494;2023-05-08T10:51:39;102103.59;;;23.16;100.00
21111;BME280;10713;51.912;4.494;2023-05-08T10:54:17;102104.84;;;23.36;100.00
21111;BME280;10713;51.912;4.494;2023-05-08T10:56:43;102112.22;;;23.46;100.00
21111;BME280;10713;51.912;4.494;2023-05-08T10:59:17;102109.59;;;23.57;100.00
21111;BME280;10713;51.912;4.494;2023-05-08T11:01:46;102099.06;;;23.54;100.00
21111;BME280;10713;51.912;4.494;2023-05-08T11:04:20;102098.66;;;23.47;100.00
21111;BME280;10713;51.912;4.494;2023-05-08T11:06:47;102095.72;;;23.50;100.00
21111;BME280;10713;51.912;4.494;2023-05-08T11:11:53;102100.75;;;23.31;100.00
21111;BME280;10713;51.912;4.494;2023-05-08T11:14:23;102097.34;;;23.16;100.00
21111;BME280;10713;51.912;4.494;2023-05-08T11:19:22;102095.03;;;23.35;100.00
21111;BME280;10713;51.912;4.494;2023-05-08T11:24:36;102092.91;;;23.52;100.00
21111;BME280;10713;51.912;4.494;2023-05-08T11:27:01;102090.50;;;23.73;100.00
21111;BME280;10713;51.912;4.494;2023-05-08T11:29:27;102078.44;;;23.90;100.00
21111;BME280;10713;51.912;4.494;2023-05-08T11:31:52;102076.41;;;23.80;100.00
21111;BME280;10713;51.912;4.494;2023-05-08T11:37:16;102084.41;;;23.69;100.00
21111;BME280;10713;51.912;4.494;2023-05-08T11:39:42;102076.72;;;23.52;100.00
21111;BME280;10713;51.912;4.494;2023-05-08T11:45:08;102080.91;;;23.32;100.00
21111;BME280;10713;51.912;4.494;2023-05-08T11:47:39;102082.53;;;23.34;100.00
21111;BME280;10713;51.912;4.494;2023-05-08T11:50:06;102082.81;;;23.06;100.00
21111;BME280;10713;51.912;4.494;2023-05-08T11:52:34;102077.44;;;22.93;100.00
21111;BME280;10713;51.912;4.494;2023-05-08T11:55:02;102081.66;;;22.97;100.00
21111;BME280;10713;51.912;4.494;2023-05-08T11:57:29;102079.50;;;22.77;100.00
21111;BME280;10713;51.912;4.494;2023-05-08T11:59:55;102085.00;;;22.37;100.00
21111;BME280;10713;51.912;4.494;2023-05-08T12:02:35;102079.47;;;22.13;100.00
21111;BME280;10713;51.912;4.494;2023-05-08T12:05:00;102072.34;;;22.12;100.00
21111;BME280;10713;51.912;4.494;2023-05-08T12:07:26;102072.56;;;21.96;100.00
21111;BME280;10713;51.912;4.494;2023-05-08T12:09:52;102068.66;;;21.87;100.00
21111;BME280;10713;51.912;4.494;2023-05-08T12:12:17;102080.06;;;21.91;100.00
21111;BME280;10713;51.912;4.494;2023-05-08T12:14:42;102083.72;;;21.90;100.00
21111;BME280;10713;51.912;4.494;2023-05-08T12:17:08;102086.88;;;21.69;100.00
21111;BME280;10713;51.912;4.494;2023-05-08T12:19:34;102073.03;;;21.75;100.00
21111;BME280;10713;51.912;4.494;2023-05-08T12:21:59;102075.94;;;21.72;100.00
21111;BME280;10713;51.912;4.494;2023-05-08T12:24:24;102073.59;;;21.80;100.00
21111;BME280;10713;51.912;4.494;2023-05-08T12:26:53;102065.84;;;21.76;100.00
21111;BME280;10713;51.912;4.494;2023-05-08T12:29:20;102062.38;;;21.74;100.00
21111;BME280;10713;51.912;4.494;2023-05-08T12:31:46;102068.34;;;21.92;100.00
21111;BME280;10713;51.912;4.494;2023-05-08T12:34:12;102070.28;;;21.90;100.00
21111;BME280;10713;51.912;4.494;2023-05-08T12:36:37;102064.16;;;22.00;100.00
21111;BME280;10713;51.912;4.494;2023-05-08T12:39:14;102063.44;;;22.11;100.00
21111;BME280;10713;51.912;4.494;2023-05-08T12:41:47;102072.63;;;21.81;100.00
21111;BME280;10713;51.912;4.494;2023-05-08T12:44:31;102069.72;;;21.85;100.00
21111;BME280;10713;51.912;4.494;2023-05-08T12:46:56;102064.06;;;22.02;100.00
21111;BME280;10713;51.912;4.494;2023-05-08T12:49:26;102065.38;;;22.09;100.00
21111;BME280;10713;51.912;4.494;2023-05-08T12:52:11;102060.59;;;22.27;100.00
21111;BME280;10713;51.912;4.494;2023-05-08T12:54:38;102060.47;;;22.29;100.00
21111;BME280;10713;51.912;4.494;2023-05-08T12:57:17;102057.66;;;22.43;100.00
21111;BME280;10713;51.912;4.494;2023-05-08T12:59:44;102048.41;;;22.60;100.00
21111;BME280;10713;51.912;4.494;2023-05-08T13:02:20;102044.50;;;22.77;100.00
21111;BME280;10713;51.912;4.494;2023-05-08T13:04:52;102051.63;;;22.65;100.00
21111;BME280;10713;51.912;4.494;2023-05-08T13:07:18;102050.69;;;22.53;100.00
21111;BME280;10713;51.912;4.494;2023-05-08T13:09:59;102051.63;;;22.65;100.00
21111;BME280;10713;51.912;4.494;2023-05-08T13:12:27;102040.53;;;22.82;100.00
21111;BME280;10713;51.912;4.494;2023-05-08T13:14:53;102039.13;;;22.77;100.00
21111;BME280;10713;51.912;4.494;2023-05-08T13:17:18;102042.16;;;22.59;100.00
21111;BME280;10713;51.912;4.494;2023-05-08T13:19:44;102039.59;;;22.45;100.00
21111;BME280;10713;51.912;4.494;2023-05-08T13:22:09;102044.22;;;22.43;100.00